createdAt,value
2018-03-24T00:00:45.909Z,1.06
2018-03-24T00:03:14.586Z,1.04
2018-03-24T00:05:43.350Z,1.09
2018-03-24T00:08:11.964Z,1.19
2018-03-24T00:10:40.689Z,1.10
2018-03-24T00:13:09.314Z,1.06
2018-03-24T00:15:38.031Z,0.99
2018-03-24T00:18:06.753Z,1.03
2018-03-24T00:20:35.476Z,1.05
2018-03-24T00:23:04.322Z,1.13
2018-03-24T00:25:32.935Z,1.15
2018-03-24T00:28:01.643Z,1.14
2018-03-24T00:30:30.363Z,1.21
2018-03-24T00:32:59.085Z,1.13
2018-03-24T00:35:27.678Z,1.07
2018-03-24T00:37:56.864Z,1.08
2018-03-24T00:40:25.566Z,1.24
2018-03-24T00:42:54.274Z,1.05
2018-03-24T00:45:22.894Z,0.98
2018-03-24T00:47:51.530Z,0.96
2018-03-24T00:50:20.240Z,0.93
2018-03-24T00:52:48.839Z,0.91
2018-03-24T00:55:17.481Z,0.89
2018-03-24T00:57:46.204Z,0.92
2018-03-24T01:00:14.835Z,0.89
2018-03-24T01:02:43.751Z,1.00
2018-03-24T01:05:13.081Z,0.96
2018-03-24T01:07:41.794Z,0.99
2018-03-24T01:10:11.097Z,0.95
2018-03-24T01:12:40.343Z,1.07
2018-03-24T01:15:09.063Z,1.05
2018-03-24T01:17:37.785Z,0.89
2018-03-24T01:20:06.410Z,0.91
2018-03-24T01:22:35.105Z,0.94
2018-03-24T01:25:03.753Z,1.02
2018-03-24T01:27:32.473Z,1.07
2018-03-24T01:30:01.095Z,1.04
2018-03-24T01:32:29.733Z,1.10
2018-03-24T01:34:58.287Z,1.08
2018-03-24T01:37:26.961Z,1.06
2018-03-24T01:39:55.584Z,1.19
2018-03-24T01:42:24.155Z,1.10
2018-03-24T01:44:52.845Z,1.08
2018-03-24T01:47:21.423Z,1.13
2018-03-24T01:49:50.170Z,1.22
2018-03-24T01:52:18.787Z,1.11
2018-03-24T01:54:47.410Z,1.14
2018-03-24T01:57:16.030Z,1.13
2018-03-24T01:59:44.825Z,1.23
2018-03-24T02:02:13.548Z,1.23
2018-03-24T02:04:42.295Z,1.22
2018-03-24T02:07:10.915Z,1.12
2018-03-24T02:09:39.945Z,1.06
2018-03-24T02:12:08.571Z,1.23
2018-03-24T02:14:37.276Z,1.18
2018-03-24T02:17:05.833Z,1.26
2018-03-24T02:19:34.547Z,1.27
2018-03-24T02:22:03.221Z,1.23
2018-03-24T02:24:32.071Z,1.17
2018-03-24T02:27:00.793Z,1.29
2018-03-24T02:29:29.429Z,1.22
2018-03-24T02:31:57.986Z,1.23
2018-03-24T02:34:26.760Z,1.12
2018-03-24T02:36:55.581Z,0.98
2018-03-24T02:39:24.303Z,1.06
2018-03-24T02:41:53.584Z,0.98
2018-03-24T02:44:22.349Z,1.00
2018-03-24T02:46:50.953Z,1.00
2018-03-24T02:49:19.698Z,0.94
2018-03-24T02:51:48.393Z,0.90
2018-03-24T02:54:16.930Z,1.03
2018-03-24T02:56:45.727Z,1.11
2018-03-24T02:59:14.481Z,1.06
2018-03-24T03:01:43.100Z,0.82
2018-03-24T03:04:11.779Z,0.89
2018-03-24T03:06:40.548Z,0.79
2018-03-24T03:09:09.178Z,0.89
2018-03-24T03:11:37.891Z,0.82
2018-03-24T03:14:06.564Z,0.80
2018-03-24T03:16:35.534Z,0.83
2018-03-24T03:19:04.157Z,0.75
2018-03-24T03:21:53.059Z,0.94
2018-03-24T03:24:21.668Z,0.90
2018-03-24T03:26:50.266Z,0.89
2018-03-24T03:29:19.011Z,0.88
2018-03-24T03:31:53.455Z,0.93
2018-03-24T03:34:22.278Z,0.96
2018-03-24T03:36:50.999Z,0.98
2018-03-24T03:39:21.026Z,0.97
2018-03-24T03:41:49.750Z,1.06
2018-03-24T03:44:18.369Z,0.83
2018-03-24T03:46:46.992Z,1.06
2018-03-24T03:49:15.713Z,1.01
2018-03-24T03:51:44.435Z,1.05
2018-03-24T03:54:13.155Z,0.88
2018-03-24T03:56:41.734Z,0.92
2018-03-24T03:59:10.307Z,0.97
2018-03-24T04:01:39.021Z,1.02
2018-03-24T04:04:07.670Z,0.96
2018-03-24T04:06:36.465Z,1.03
2018-03-24T04:09:05.250Z,1.12
2018-03-24T04:11:35.045Z,1.07
2018-03-24T04:14:03.739Z,1.04
2018-03-24T04:16:32.454Z,1.12
2018-03-24T04:19:01.178Z,1.12
2018-03-24T04:21:29.813Z,1.06
2018-03-24T04:23:58.438Z,1.14
2018-03-24T04:26:27.069Z,1.07
2018-03-24T04:28:56.565Z,1.12
2018-03-24T04:31:25.491Z,1.04
2018-03-24T04:33:54.591Z,1.03
2018-03-24T04:36:23.333Z,0.98
2018-03-24T04:38:52.057Z,1.04
2018-03-24T04:41:20.778Z,1.09
2018-03-24T04:43:49.363Z,0.99
2018-03-24T04:46:18.032Z,1.06
2018-03-24T04:48:46.660Z,1.03
2018-03-24T04:51:15.309Z,1.07
2018-03-24T04:53:44.670Z,1.05
2018-03-24T04:56:13.331Z,1.06
2018-03-24T04:58:42.030Z,1.07
2018-03-24T05:01:10.696Z,1.17
2018-03-24T05:03:39.395Z,1.24
2018-03-24T05:06:08.099Z,1.24
2018-03-24T05:08:36.819Z,1.32
2018-03-24T05:11:05.541Z,1.29
2018-03-24T05:13:34.087Z,1.34
2018-03-24T05:16:02.686Z,1.42
2018-03-24T05:18:31.304Z,1.39
2018-03-24T05:21:00.028Z,1.41
2018-03-24T05:23:28.750Z,1.55
2018-03-24T05:25:57.479Z,1.69
2018-03-24T05:28:26.192Z,1.75
2018-03-24T05:30:54.918Z,1.79
2018-03-24T05:33:23.550Z,1.81
2018-03-24T05:35:52.156Z,1.82
2018-03-24T05:38:21.483Z,1.85
2018-03-24T05:40:50.209Z,1.92
2018-03-24T05:43:18.927Z,1.81
2018-03-24T05:45:47.654Z,2.01
2018-03-24T05:48:16.370Z,2.14
2018-03-24T05:50:45.093Z,2.15
2018-03-24T05:53:13.725Z,2.19
2018-03-24T05:55:43.307Z,2.36
2018-03-24T05:58:12.059Z,2.29
2018-03-24T06:00:40.784Z,2.32
2018-03-24T06:03:10.095Z,2.29
2018-03-24T06:05:38.827Z,2.40
2018-03-24T06:08:08.058Z,2.56
2018-03-24T06:10:36.732Z,2.55
2018-03-24T06:13:05.396Z,2.75
2018-03-24T06:15:34.060Z,3.07
2018-03-24T06:18:02.632Z,3.32
2018-03-24T06:20:31.461Z,3.43
2018-03-24T06:23:00.190Z,3.23
2018-03-24T06:25:29.006Z,3.50
2018-03-24T06:27:57.728Z,3.79
2018-03-24T06:30:26.856Z,3.90
2018-03-24T06:32:55.673Z,3.60
2018-03-24T06:35:24.898Z,3.53
2018-03-24T06:37:53.684Z,3.74
2018-03-24T06:40:22.340Z,4.04
2018-03-24T06:42:51.163Z,4.38
2018-03-24T06:45:19.708Z,4.49
2018-03-24T06:47:49.409Z,4.66
2018-03-24T06:50:18.058Z,4.79
2018-03-24T06:52:46.732Z,5.10
2018-03-24T06:55:15.379Z,5.41
2018-03-24T06:57:44.105Z,5.13
2018-03-24T07:00:12.824Z,5.25
2018-03-24T07:02:41.641Z,5.28
2018-03-24T07:05:10.363Z,5.13
2018-03-24T07:07:38.981Z,5.04
2018-03-24T07:10:08.232Z,5.14
2018-03-24T07:12:36.828Z,5.29
2018-03-24T07:15:05.551Z,5.64
2018-03-24T07:17:34.273Z,5.23
2018-03-24T07:20:02.893Z,5.79
2018-03-24T07:22:31.583Z,5.61
2018-03-24T07:25:00.137Z,5.96
2018-03-24T07:27:28.859Z,7.09
2018-03-24T07:29:57.487Z,6.76
2018-03-24T07:32:26.100Z,6.71
2018-03-24T07:34:55.288Z,6.59
2018-03-24T07:37:24.051Z,6.75
2018-03-24T07:39:52.768Z,6.95
2018-03-24T07:42:21.490Z,8.12
2018-03-24T07:44:50.120Z,8.83
2018-03-24T07:47:18.738Z,8.55
2018-03-24T07:49:47.456Z,8.10
2018-03-24T07:52:16.152Z,7.48
2018-03-24T07:54:45.602Z,7.81
2018-03-24T07:57:14.285Z,8.25
2018-03-24T07:59:46.960Z,8.37
2018-03-24T08:02:15.637Z,8.74
2018-03-24T08:04:44.250Z,8.49
2018-03-24T08:07:12.937Z,8.83
2018-03-24T08:09:41.628Z,8.47
2018-03-24T08:12:10.234Z,9.34
2018-03-24T08:14:38.993Z,9.62
2018-03-24T08:17:09.518Z,10.25
2018-03-24T08:19:38.242Z,10.27
2018-03-24T08:22:06.867Z,11.04
2018-03-24T08:24:35.573Z,11.40
2018-03-24T08:27:04.411Z,11.04
2018-03-24T08:29:33.127Z,11.57
2018-03-24T08:32:01.851Z,11.66
2018-03-24T08:34:30.445Z,11.98
2018-03-24T08:36:59.152Z,12.47
2018-03-24T08:39:27.915Z,11.97
2018-03-24T08:41:56.638Z,13.04
2018-03-24T08:44:25.223Z,12.56
2018-03-24T08:46:53.880Z,12.83
2018-03-24T08:49:22.606Z,13.19
2018-03-24T08:51:51.302Z,12.59
2018-03-24T08:54:20.067Z,13.17
2018-03-24T08:56:48.709Z,12.82
2018-03-24T08:59:17.496Z,13.18
2018-03-24T09:01:46.219Z,12.81
2018-03-24T09:04:14.937Z,12.13
2018-03-24T09:06:43.655Z,11.55
2018-03-24T09:09:12.284Z,11.21
2018-03-24T09:11:40.936Z,10.67
2018-03-24T09:14:09.626Z,10.54
2018-03-24T09:16:38.342Z,10.26
2018-03-24T09:19:07.065Z,10.13
2018-03-24T09:21:35.785Z,9.39
2018-03-24T09:24:04.531Z,10.30
2018-03-24T09:26:33.232Z,10.47
2018-03-24T09:29:01.951Z,10.50
2018-03-24T09:31:30.776Z,10.26
2018-03-24T09:33:59.499Z,10.68
2018-03-24T09:36:28.141Z,10.36
2018-03-24T09:38:56.863Z,10.80
2018-03-24T09:41:25.481Z,11.66
2018-03-24T09:43:54.098Z,11.31
2018-03-24T09:46:22.805Z,11.54
2018-03-24T09:48:51.437Z,12.03
2018-03-24T09:51:20.170Z,12.47
2018-03-24T09:53:48.872Z,13.66
2018-03-24T09:56:17.694Z,13.77
2018-03-24T09:58:46.414Z,13.77
2018-03-24T10:01:15.137Z,13.62
2018-03-24T10:03:43.857Z,14.11
2018-03-24T10:06:12.683Z,13.52
2018-03-24T10:08:41.408Z,13.29
2018-03-24T10:11:10.926Z,13.70
2018-03-24T10:13:41.228Z,12.85
2018-03-24T10:16:10.580Z,11.65
2018-03-24T10:18:39.197Z,12.70
2018-03-24T10:24:27.497Z,12.72
2018-03-24T10:26:56.245Z,12.67
2018-03-24T10:29:24.965Z,11.93
2018-03-24T10:31:53.532Z,12.16
2018-03-24T10:34:22.311Z,12.30
2018-03-24T10:36:50.939Z,11.20
2018-03-24T10:39:19.657Z,11.12
2018-03-24T10:41:48.440Z,11.48
2018-03-24T10:44:17.098Z,11.64
2018-03-24T10:46:45.819Z,12.28
2018-03-24T10:49:14.440Z,13.81
2018-03-24T10:51:43.261Z,13.54
2018-03-24T10:54:11.796Z,13.10
2018-03-24T10:56:40.509Z,13.04
2018-03-24T10:59:09.161Z,12.06
2018-03-24T11:01:37.821Z,11.96
2018-03-24T11:04:06.494Z,12.08
2018-03-24T11:06:35.192Z,12.49
2018-03-24T11:09:04.017Z,11.97
2018-03-24T11:11:33.296Z,12.77
2018-03-24T11:14:02.061Z,12.78
2018-03-24T11:16:30.710Z,12.27
2018-03-24T11:18:59.363Z,12.23
2018-03-24T11:21:28.030Z,11.11
2018-03-24T11:23:56.619Z,10.76
2018-03-24T11:26:25.248Z,11.03
2018-03-24T11:28:54.094Z,11.46
2018-03-24T11:31:22.812Z,11.49
2018-03-24T11:33:51.512Z,11.31
2018-03-24T11:36:21.460Z,11.44
2018-03-24T11:38:50.184Z,11.06
2018-03-24T11:41:18.804Z,10.65
2018-03-24T11:43:47.446Z,10.62
2018-03-24T11:46:16.147Z,11.41
2018-03-24T11:48:44.969Z,11.15
2018-03-24T11:51:14.210Z,10.60
2018-03-24T11:53:46.948Z,9.60
2018-03-24T11:56:15.663Z,10.02
2018-03-24T11:58:44.476Z,10.08
2018-03-24T12:01:13.093Z,10.14
2018-03-24T12:03:41.817Z,9.88
2018-03-24T12:06:10.386Z,9.75
2018-03-24T12:08:39.046Z,9.24
2018-03-24T12:11:07.685Z,9.62
2018-03-24T12:13:36.237Z,9.86
2018-03-24T12:16:06.331Z,9.56
2018-03-24T12:18:35.051Z,9.66
2018-03-24T12:21:04.003Z,9.46
2018-03-24T12:23:32.671Z,9.58
2018-03-24T12:26:01.421Z,9.23
2018-03-24T12:28:30.058Z,9.35
2018-03-24T12:30:58.847Z,9.19
2018-03-24T12:33:27.427Z,9.11
2018-03-24T12:35:56.204Z,9.10
2018-03-24T12:38:24.927Z,9.32
2018-03-24T12:40:53.555Z,8.96
2018-03-24T12:43:22.276Z,8.50
2018-03-24T12:45:50.893Z,8.88
2018-03-24T12:48:19.617Z,8.26
2018-03-24T12:50:48.539Z,8.38
2018-03-24T12:53:17.266Z,8.63
2018-03-24T12:55:46.885Z,8.66
2018-03-24T12:58:15.559Z,8.47
2018-03-24T13:00:44.137Z,8.68
2018-03-24T13:03:12.950Z,8.35
2018-03-24T13:05:41.591Z,8.33
2018-03-24T13:08:10.294Z,8.24
2018-03-24T13:10:38.934Z,8.45
2018-03-24T13:13:07.739Z,8.44
2018-03-24T13:15:36.333Z,8.19
2018-03-24T13:18:05.109Z,8.32
2018-03-24T13:20:33.724Z,8.46
2018-03-24T13:23:02.393Z,8.52
2018-03-24T13:25:31.143Z,8.39
2018-03-24T13:27:59.827Z,8.59
2018-03-24T13:30:28.587Z,8.98
2018-03-24T13:32:57.319Z,8.96
2018-03-24T13:35:26.935Z,9.20
2018-03-24T13:37:55.658Z,9.24
2018-03-24T13:40:24.362Z,8.92
2018-03-24T13:42:53.021Z,8.97
2018-03-24T13:45:21.822Z,8.68
2018-03-24T13:47:50.544Z,8.85
2018-03-24T13:50:19.127Z,8.75
2018-03-24T13:52:48.692Z,8.67
2018-03-24T13:55:17.344Z,8.30
2018-03-24T13:57:46.134Z,8.47
2018-03-24T14:00:16.864Z,8.66
2018-03-24T14:02:45.563Z,8.74
2018-03-24T14:05:14.308Z,8.67
2018-03-24T14:07:43.867Z,8.49
2018-03-24T14:10:12.556Z,8.52
2018-03-24T14:12:41.380Z,8.31
2018-03-24T14:15:10.099Z,8.04
2018-03-24T14:17:38.823Z,8.36
2018-03-24T14:20:07.450Z,8.25
2018-03-24T14:22:36.142Z,8.11
2018-03-24T14:25:04.804Z,8.29
2018-03-24T14:27:33.421Z,8.27
2018-03-24T14:30:02.029Z,8.39
2018-03-24T14:32:31.733Z,8.44
2018-03-24T14:35:00.383Z,8.38
2018-03-24T14:37:28.997Z,8.52
2018-03-24T14:39:57.623Z,8.43
2018-03-24T14:42:26.248Z,8.34
2018-03-24T14:44:55.674Z,8.00
2018-03-24T14:47:25.068Z,7.97
2018-03-24T14:49:53.671Z,7.98
2018-03-24T14:52:22.217Z,7.69
2018-03-24T14:54:50.881Z,7.59
2018-03-24T14:57:19.479Z,7.88
2018-03-24T14:59:48.047Z,7.78
2018-03-24T15:02:17.285Z,7.89
2018-03-24T15:04:45.885Z,7.79
2018-03-24T15:07:14.456Z,7.79
2018-03-24T15:09:43.084Z,7.80
2018-03-24T15:12:11.643Z,7.44
2018-03-24T15:14:41.176Z,7.77
2018-03-24T15:17:09.786Z,7.83
2018-03-24T15:19:38.370Z,7.47
2018-03-24T15:22:07.097Z,7.42
2018-03-24T15:24:35.836Z,7.00
2018-03-24T15:27:04.441Z,7.22
2018-03-24T15:29:44.747Z,7.08
2018-03-24T15:32:25.065Z,7.01
2018-03-24T15:35:05.311Z,7.22
2018-03-24T15:37:33.874Z,6.97
2018-03-24T15:40:02.443Z,7.04
2018-03-24T15:42:31.751Z,6.98
2018-03-24T15:45:00.423Z,6.85
2018-03-24T15:47:29.037Z,6.94
2018-03-24T15:49:57.657Z,6.92
2018-03-24T15:52:26.208Z,6.88
2018-03-24T15:54:54.815Z,6.78
2018-03-24T15:57:23.402Z,6.92
2018-03-24T15:59:52.050Z,6.72
2018-03-24T16:02:20.675Z,6.66
2018-03-24T16:04:49.273Z,6.65
2018-03-24T16:07:17.962Z,6.73
2018-03-24T16:09:46.543Z,6.65
2018-03-24T16:12:15.107Z,6.36
2018-03-24T16:14:43.659Z,6.39
2018-03-24T16:17:12.315Z,6.38
2018-03-24T16:19:41.608Z,6.33
2018-03-24T16:22:10.239Z,6.24
2018-03-24T16:24:38.972Z,6.05
2018-03-24T16:27:07.590Z,6.09
2018-03-24T16:29:36.206Z,5.90
2018-03-24T16:32:05.027Z,5.89
2018-03-24T16:34:33.854Z,5.92
2018-03-24T16:37:02.470Z,5.77
2018-03-24T16:39:31.095Z,5.91
2018-03-24T16:41:59.671Z,5.83
2018-03-24T16:44:28.369Z,5.87
2018-03-24T16:46:56.963Z,5.90
2018-03-24T16:49:25.603Z,5.84
2018-03-24T16:51:54.301Z,5.76
2018-03-24T16:54:22.849Z,5.79
2018-03-24T16:56:51.442Z,5.79
2018-03-24T16:59:20.168Z,5.71
2018-03-24T17:01:48.739Z,5.75
2018-03-24T17:04:17.416Z,5.75
2018-03-24T17:06:45.970Z,5.80
2018-03-24T17:09:14.569Z,5.61
2018-03-24T17:11:43.191Z,5.54
2018-03-24T17:14:11.830Z,5.54
2018-03-24T17:16:40.718Z,5.19
2018-03-24T17:19:09.299Z,5.01
2018-03-24T17:21:37.971Z,5.25
2018-03-24T17:24:07.166Z,5.34
2018-03-24T17:26:35.743Z,5.01
2018-03-24T17:29:04.327Z,5.05
2018-03-24T17:31:32.917Z,5.20
2018-03-24T17:34:01.543Z,4.77
2018-03-24T17:36:30.155Z,4.55
2018-03-24T17:38:58.814Z,4.46
2018-03-24T17:41:27.538Z,4.52
2018-03-24T17:43:56.099Z,4.73
2018-03-24T17:46:24.678Z,4.63
2018-03-24T17:48:53.362Z,4.47
2018-03-24T17:51:22.021Z,4.60
2018-03-24T17:53:50.617Z,4.60
2018-03-24T17:56:20.170Z,4.55
2018-03-24T17:58:48.791Z,4.50
2018-03-24T18:01:17.468Z,4.51
2018-03-24T18:03:46.067Z,4.46
2018-03-24T18:06:14.633Z,4.38
2018-03-24T18:08:43.176Z,4.47
2018-03-24T18:11:11.758Z,4.47
2018-03-24T18:13:40.304Z,4.46
2018-03-24T18:16:08.888Z,4.41
2018-03-24T18:18:37.451Z,4.46
2018-03-24T18:21:06.182Z,4.57
2018-03-24T18:23:34.804Z,4.58
2018-03-24T18:26:03.340Z,4.57
2018-03-24T18:28:32.659Z,4.74
2018-03-24T18:31:01.349Z,4.91
2018-03-24T18:33:29.915Z,4.92
2018-03-24T18:35:58.615Z,4.83
2018-03-24T18:38:28.106Z,4.79
2018-03-24T18:40:56.658Z,4.85
2018-03-24T18:43:25.359Z,4.72
2018-03-24T18:45:53.972Z,4.87
2018-03-24T18:48:22.514Z,4.82
2018-03-24T18:50:51.353Z,4.80
2018-03-24T18:53:19.986Z,4.73
2018-03-24T18:55:48.691Z,4.70
2018-03-24T18:58:17.259Z,4.65
2018-03-24T19:00:45.830Z,4.70
2018-03-24T19:03:14.419Z,4.69
2018-03-24T19:05:43.245Z,4.66
2018-03-24T19:08:11.926Z,4.67
2018-03-24T19:10:40.453Z,4.76
2018-03-24T19:13:09.001Z,4.78
2018-03-24T19:15:37.601Z,4.91
2018-03-24T19:18:06.222Z,4.91
2018-03-24T19:20:34.798Z,4.87
2018-03-24T19:23:03.693Z,4.82
2018-03-24T19:25:32.274Z,4.87
2018-03-24T19:28:00.870Z,4.88
2018-03-24T19:30:29.463Z,4.79
2018-03-24T19:32:58.046Z,4.72
2018-03-24T19:35:26.613Z,4.52
2018-03-24T19:37:55.256Z,4.52
2018-03-24T19:40:23.880Z,4.55
2018-03-24T19:42:52.510Z,4.60
2018-03-24T19:45:21.132Z,4.72
2018-03-24T19:47:49.813Z,4.72
2018-03-24T19:50:18.354Z,4.83
2018-03-24T19:52:47.088Z,4.72
2018-03-24T19:55:16.331Z,4.47
2018-03-24T19:57:44.943Z,4.39
2018-03-24T20:00:13.601Z,4.30
2018-03-24T20:02:42.376Z,4.20
2018-03-24T20:05:11.002Z,4.09
2018-03-24T20:07:39.579Z,4.12
2018-03-24T20:10:08.199Z,4.18
2018-03-24T20:12:36.774Z,4.12
2018-03-24T20:15:05.405Z,4.07
2018-03-24T20:17:34.111Z,3.90
2018-03-24T20:20:02.651Z,3.90
2018-03-24T20:22:31.235Z,3.83
2018-03-24T20:24:59.867Z,3.78
2018-03-24T20:27:28.473Z,3.80
2018-03-24T20:29:57.211Z,3.85
2018-03-24T20:32:26.637Z,3.84
2018-03-24T20:34:55.179Z,3.80
2018-03-24T20:37:23.727Z,3.84
2018-03-24T20:39:52.410Z,3.83
2018-03-24T20:42:21.034Z,3.76
2018-03-24T20:44:49.638Z,3.75
2018-03-24T20:47:18.180Z,3.65
2018-03-24T20:49:46.892Z,3.73
2018-03-24T20:52:15.494Z,3.72
2018-03-24T20:54:44.023Z,3.71
2018-03-24T20:57:12.650Z,3.83
2018-03-24T20:59:41.284Z,3.88
2018-03-24T21:02:09.844Z,3.87
2018-03-24T21:04:38.982Z,3.99
2018-03-24T21:07:07.642Z,3.93
2018-03-24T21:09:36.239Z,3.88
2018-03-24T21:12:04.796Z,3.83
2018-03-24T21:14:33.528Z,3.87
2018-03-24T21:17:02.079Z,3.86
2018-03-24T21:19:30.608Z,3.90
2018-03-24T21:21:59.195Z,3.86
2018-03-24T21:24:27.740Z,3.83
2018-03-24T21:26:56.323Z,3.91
2018-03-24T21:29:24.940Z,4.10
2018-03-24T21:31:53.519Z,3.86
2018-03-24T21:34:22.066Z,3.80
2018-03-24T21:36:51.621Z,3.77
2018-03-24T21:39:20.166Z,3.79
2018-03-24T21:41:48.744Z,3.69
2018-03-24T21:44:17.407Z,3.71
2018-03-24T21:46:46.042Z,3.70
2018-03-24T21:49:14.588Z,3.63
2018-03-24T21:51:43.260Z,3.64
2018-03-24T21:54:11.826Z,3.64
2018-03-24T21:56:40.514Z,3.76
2018-03-24T21:59:09.046Z,3.74
2018-03-24T22:01:37.627Z,3.68
2018-03-24T22:04:06.335Z,3.71
2018-03-24T22:06:34.939Z,3.77
2018-03-24T22:09:04.240Z,3.78
2018-03-24T22:11:32.941Z,3.86
2018-03-24T22:14:01.491Z,3.90
2018-03-24T22:16:30.078Z,3.92
2018-03-24T22:18:58.764Z,3.94
2018-03-24T22:21:27.354Z,3.99
2018-03-24T22:23:55.928Z,3.94
2018-03-24T22:26:24.539Z,4.08
2018-03-24T22:28:53.095Z,4.06
2018-03-24T22:31:21.771Z,3.82
2018-03-24T22:33:51.688Z,4.10
2018-03-24T22:36:20.392Z,4.17
2018-03-24T22:38:50.160Z,4.19
2018-03-24T22:41:18.859Z,4.29
2018-03-24T22:43:47.413Z,4.22
2018-03-24T22:46:15.975Z,4.23
2018-03-24T22:48:44.577Z,4.29
2018-03-24T22:51:13.139Z,4.36
2018-03-24T22:53:42.409Z,4.22
2018-03-24T22:56:11.005Z,4.39
2018-03-24T22:58:40.431Z,4.38
2018-03-24T23:01:09.079Z,4.40
2018-03-24T23:03:37.656Z,4.41
2018-03-24T23:06:06.320Z,4.45
2018-03-24T23:08:34.870Z,4.40
2018-03-24T23:11:03.584Z,4.38
2018-03-24T23:13:32.138Z,4.33
2018-03-24T23:16:00.832Z,4.37
2018-03-24T23:18:29.975Z,4.44
2018-03-24T23:20:58.584Z,4.31
2018-03-24T23:23:30.423Z,4.36
2018-03-24T23:25:59.029Z,4.40
2018-03-24T23:28:28.510Z,4.34
2018-03-24T23:30:57.209Z,4.27
2018-03-24T23:33:25.766Z,4.37
2018-03-24T23:35:54.361Z,4.31
2018-03-24T23:38:22.926Z,4.48
2018-03-24T23:40:51.539Z,4.44
2018-03-24T23:43:20.894Z,4.32
2018-03-24T23:45:49.575Z,4.36
2018-03-24T23:48:18.191Z,4.35
2018-03-24T23:50:47.461Z,4.38
2018-03-24T23:53:16.142Z,4.41
2018-03-24T23:55:44.726Z,4.49
2018-03-24T23:58:13.279Z,4.41
